New Orleans Nas Jrb/Alvin Callender Field/ Airport
KNBG : now visible

Airfield :











YOU CAN JOIN US ON...

 
LOGIN :

Register | Disclaimer

   EN    FR    IT 

 









Legend :    VFR   Marginal VFR   IFR   Intensive IFR   Very Intensive IFR
Visi :
Ceiling :
>= 8 km
>= 3000ft
5 to 8 km
1000 to 3000 ft
1500m to 5 km
500 to 1000 ft
800 to 1500m
200 to 500 ft
< 800m
< 200 ft
Symbols :   Thunderstorms  Fog  Heavy snow  Heavy precipitations  Wind > 20 kt






- Airport Elevation : 2 ft


KNBG - New Orleans Nas Jrb/Alvin Callender Field/

CURRENT METAR :
  • 270255Z 23003KT 10SM FEW035 FEW250 27/26 A2997 RMK AO2 SLP148 T02670256 53010 $

EXPIRED METARs :
  • 270155Z 22003KT 10SM FEW040 FEW150 SCT250 26/26 A2996 RMK AO2 SLP143 T02610261 $
  • 270055Z 21003KT 10SM FEW035 SCT180 BKN250 28/26 A2993 RMK AO2 SLP135 T02830256 $

TAF TAF KNBG
Valid from the 26 at 23:00 until the 27 at 23:00 UTC


2623/2723 14008KT 9999 FEW025 FEW035 BKN250 QNH2988INS
BECMG 2701/2703 17005KT 9999 SCT020 SCT250 QNH2992INS
BECMG 2707/2709 VRB03KT 4800 BR FEW0150 SCT250 QNH2996INS
BECMG 2713/2715 VRB06KT 9999 NSW SCT035 SCT150 BKN250 QNH2998INS
FM271800 13006KT 9999 FEW035 SCT055 QNH3005INS AUTOMATED SENSOR METWATCH 2704 TIL 2711 T26/2712Z T33/2722Z FN00243
KZHU FIR / North America



MET'MAP, your aeronautical weather chart ! - Copyright ORBIFLY December 2007 - Disclaimer

ORBIFLY MET'MAP TEAM :

Programming & Development : Alexandra Zaïnal
Concept & original design : Baudouin d'Aumeries
Assistance for programming : Marc-Olivier Méhu
Technical & hardware support : Manuel Goepfert

Contact : metmap@orbifly.com




SOURCES & CREDITS :

   NOAA       Earth
Advisory